Time;durP1;ratioP1;P1;durP2;ratioP2;P2;SDS_P1;SDS_P2;PMS_P1;PMS_P2;Temp;Humidity;BMP_temperature;BMP_pressure;BME280_temperature;BME280_humidity;BME280_pressure;Samples;Min_cycle;Max_cycle;Signal;HPM_P1;HPM_P2
2022/07/26 00:02:20;;;;;;;7.55;6.85;;;;;;;;;;6238473;23;20011;-72
2022/07/26 00:04:46;;;;;;;8.20;6.43;;;;;;;;;;6236648;23;20080;-73
2022/07/26 00:07:13;;;;;;;7.43;6.63;;;;;;;;;;6238792;23;20436;-72
2022/07/26 00:09:39;;;;;;;7.60;6.32;;;;;;;;;;6238363;23;20000;-72
2022/07/26 00:12:05;;;;;;;10.60;7.05;;;;;;;;;;6238645;23;20420;-73
2022/07/26 00:14:31;;;;;;;9.95;7.50;;;;;;;;;;6235716;23;20087;-73
2022/07/26 00:16:57;;;;;;;8.45;7.15;;;;;;;;;;6238632;23;20498;-73
2022/07/26 00:19:24;;;;;;;9.02;6.50;;;;;;;;;;6237767;23;20000;-73
2022/07/26 00:22:32;;;;;;;8.50;7.70;;;;;;;;;;6238575;23;20018;-73
2022/07/26 00:24:36;;;;;;;10.43;7.28;;;;;;;;;;6237618;23;20837;-71
2022/07/26 00:27:02;;;;;;;7.78;7.03;;;;;;;;;;6236572;23;20005;-72
2022/07/26 00:29:28;;;;;;;8.68;7.05;;;;;;;;;;6211272;23;20008;-73
2022/07/26 00:31:54;;;;;;;8.90;7.20;;;;;;;;;;6238460;23;20004;-73
2022/07/26 00:34:21;;;;;;;8.75;7.28;;;;;;;;;;6238525;23;20000;-73
2022/07/26 00:36:47;;;;;;;7.88;7.07;;;;;;;;;;6238050;23;20004;-73
2022/07/26 00:39:13;;;;;;;10.30;6.93;;;;;;;;;;6236312;23;20099;-73
2022/07/26 00:41:39;;;;;;;8.90;6.47;;;;;;;;;;6238363;23;20432;-73
2022/07/26 00:44:05;;;;;;;9.38;7.10;;;;;;;;;;6238518;23;20683;-74
2022/07/26 00:46:31;;;;;;;7.65;6.72;;;;;;;;;;6237911;23;20042;-71
2022/07/26 00:48:57;;;;;;;8.32;7.20;;;;;;;;;;6235702;23;20004;-72
2022/07/26 00:51:24;;;;;;;8.23;6.40;;;;;;;;;;6237887;22;20008;-72
2022/07/26 00:53:50;;;;;;;8.85;7.43;;;;;;;;;;6239112;23;20320;-71
2022/07/26 00:56:16;;;;;;;7.65;6.78;;;;;;;;;;6238212;23;20023;-71
2022/07/26 00:58:43;;;;;;;8.25;6.95;;;;;;;;;;6237729;23;20069;-72
2022/07/26 01:01:10;;;;;;;8.25;6.82;;;;;;;;;;6238142;23;20012;-71
2022/07/26 01:03:36;;;;;;;8.18;6.43;;;;;;;;;;6235957;23;20298;-70
2022/07/26 01:06:02;;;;;;;6.60;6.00;;;;;;;;;;6237807;23;20004;-71
2022/07/26 01:08:28;;;;;;;6.93;6.20;;;;;;;;;;6238344;23;20007;-71
2022/07/26 01:10:54;;;;;;;8.77;6.47;;;;;;;;;;6237716;23;20000;-71
2022/07/26 01:13:21;;;;;;;6.85;6.25;;;;;;;;;;6238019;23;20008;-72
2022/07/26 01:15:47;;;;;;;6.88;6.28;;;;;;;;;;6237921;23;20083;-71
2022/07/26 01:18:14;;;;;;;9.63;7.28;;;;;;;;;;6235860;23;20011;-71
2022/07/26 01:20:40;;;;;;;6.80;6.20;;;;;;;;;;6237771;23;20055;-71
2022/07/26 01:23:07;;;;;;;7.30;6.53;;;;;;;;;;6237607;23;19997;-71
2022/07/26 01:25:34;;;;;;;7.20;6.28;;;;;;;;;;6209523;23;20425;-72
2022/07/26 01:28:01;;;;;;;7.50;6.80;;;;;;;;;;6237784;23;20006;-71
2022/07/26 01:30:27;;;;;;;7.88;6.45;;;;;;;;;;6237697;23;20059;-71
2022/07/26 01:32:53;;;;;;;7.43;6.30;;;;;;;;;;6236161;23;20098;-71
2022/07/26 01:35:20;;;;;;;7.32;6.35;;;;;;;;;;6237355;23;20004;-71
2022/07/26 01:37:46;;;;;;;7.03;6.15;;;;;;;;;;6238142;23;20444;-71
2022/07/26 01:40:13;;;;;;;6.63;6.03;;;;;;;;;;6237379;23;20004;-72
2022/07/26 01:42:39;;;;;;;7.00;6.25;;;;;;;;;;6236329;23;20432;-71
2022/07/26 01:45:07;;;;;;;7.30;6.60;;;;;;;;;;6237412;23;20405;-71
2022/07/26 01:47:33;;;;;;;6.53;5.93;;;;;;;;;;6237448;23;20008;-73
2022/07/26 01:49:59;;;;;;;7.18;5.93;;;;;;;;;;6237465;23;20000;-73
2022/07/26 01:52:26;;;;;;;6.53;5.93;;;;;;;;;;6237697;22;20004;-72
2022/07/26 01:54:52;;;;;;;7.72;6.00;;;;;;;;;;6236425;23;20010;-73
2022/07/26 01:57:18;;;;;;;6.50;5.85;;;;;;;;;;6235184;23;20012;-73
2022/07/26 01:59:45;;;;;;;6.40;5.80;;;;;;;;;;6234411;23;20004;-73
2022/07/26 02:02:11;;;;;;;6.40;5.80;;;;;;;;;;6237302;23;20365;-72
2022/07/26 02:07:22;;;;;;;6.57;5.75;;;;;;;;;;6237171;23;20498;-73
2022/07/26 02:09:48;;;;;;;6.82;5.57;;;;;;;;;;6237472;23;20134;-73
2022/07/26 02:12:14;;;;;;;6.40;5.55;;;;;;;;;;6237374;23;19996;-74
2022/07/26 02:14:40;;;;;;;7.53;5.45;;;;;;;;;;6237606;23;20008;-73
2022/07/26 02:17:06;;;;;;;5.82;5.30;;;;;;;;;;6235438;23;20087;-71
2022/07/26 02:19:33;;;;;;;5.95;5.40;;;;;;;;;;6237057;23;20168;-73
2022/07/26 02:21:59;;;;;;;6.00;5.40;;;;;;;;;;6239273;23;20008;-73
2022/07/26 02:24:27;;;;;;;5.60;5.10;;;;;;;;;;6213956;23;20621;-73
2022/07/26 02:26:54;;;;;;;5.80;5.10;;;;;;;;;;6240812;23;20008;-73
2022/07/26 02:29:20;;;;;;;5.72;5.22;;;;;;;;;;6211874;23;20054;-73
2022/07/26 02:31:46;;;;;;;5.93;5.43;;;;;;;;;;6241038;23;20003;-73
2022/07/26 02:34:12;;;;;;;9.02;5.22;;;;;;;;;;6240974;23;20075;-72
2022/07/26 02:36:38;;;;;;;7.90;5.85;;;;;;;;;;6241051;23;20008;-72
2022/07/26 02:39:05;;;;;;;8.50;5.88;;;;;;;;;;6238930;23;20083;-71
2022/07/26 02:41:31;;;;;;;6.25;5.25;;;;;;;;;;6240592;23;20015;-71
2022/07/26 02:43:57;;;;;;;6.43;5.80;;;;;;;;;;6240867;23;20049;-71
2022/07/26 02:46:24;;;;;;;7.95;5.80;;;;;;;;;;6240689;23;20000;-72
2022/07/26 02:48:50;;;;;;;8.27;5.38;;;;;;;;;;6239020;23;20007;-72
2022/07/26 02:51:16;;;;;;;6.38;5.63;;;;;;;;;;6240728;22;20008;-71
2022/07/26 02:53:42;;;;;;;10.35;5.40;;;;;;;;;;6240825;23;19996;-71
2022/07/26 02:56:08;;;;;;;6.20;5.70;;;;;;;;;;6239635;23;20008;-72
2022/07/26 02:58:36;;;;;;;6.72;5.68;;;;;;;;;;6236098;23;20102;-71
2022/07/26 03:01:02;;;;;;;6.18;5.57;;;;;;;;;;6236941;23;20449;-71
2022/07/26 03:03:28;;;;;;;6.07;5.57;;;;;;;;;;6232347;23;20011;-71
2022/07/26 03:05:54;;;;;;;6.55;5.95;;;;;;;;;;6230211;23;20027;-71
2022/07/26 03:08:21;;;;;;;6.68;6.07;;;;;;;;;;6234201;23;20555;-71
2022/07/26 03:10:47;;;;;;;8.18;5.47;;;;;;;;;;6234743;23;20004;-72
2022/07/26 03:13:14;;;;;;;8.57;5.40;;;;;;;;;;6233562;23;20055;-71
2022/07/26 03:15:40;;;;;;;6.88;5.57;;;;;;;;;;6235244;23;20436;-71
2022/07/26 03:18:06;;;;;;;8.15;5.32;;;;;;;;;;6232758;23;20000;-71
2022/07/26 03:20:32;;;;;;;6.25;5.75;;;;;;;;;;6231697;23;20377;-71
2022/07/26 03:22:58;;;;;;;5.65;5.25;;;;;;;;;;6229822;23;20011;-71
2022/07/26 03:25:25;;;;;;;6.35;5.78;;;;;;;;;;6231683;23;20655;-72
2022/07/26 03:27:55;;;;;;;6.47;5.90;;;;;;;;;;6232244;23;20038;-71
2022/07/26 03:30:22;;;;;;;6.00;5.40;;;;;;;;;;6230478;23;20089;-71
2022/07/26 03:32:48;;;;;;;6.45;5.50;;;;;;;;;;6231933;23;20008;-72
2022/07/26 03:35:14;;;;;;;6.32;5.78;;;;;;;;;;6230395;23;20011;-71
2022/07/26 03:37:40;;;;;;;6.13;5.63;;;;;;;;;;6228087;23;20004;-71
2022/07/26 03:40:07;;;;;;;6.10;5.50;;;;;;;;;;6230143;23;20022;-71
2022/07/26 03:42:34;;;;;;;6.00;5.50;;;;;;;;;;6230200;23;20045;-72
2022/07/26 03:45:00;;;;;;;7.47;5.95;;;;;;;;;;6230101;23;20012;-72
2022/07/26 03:47:26;;;;;;;5.90;5.40;;;;;;;;;;6203200;23;20035;-71
2022/07/26 03:49:52;;;;;;;5.78;5.15;;;;;;;;;;6228211;23;20448;-71
2022/07/26 03:52:19;;;;;;;6.88;6.18;;;;;;;;;;6228350;22;20025;-71
2022/07/26 03:54:45;;;;;;;6.55;5.68;;;;;;;;;;6230298;23;20500;-71
2022/07/26 03:57:11;;;;;;;6.95;6.15;;;;;;;;;;6229573;23;20030;-72
2022/07/26 03:59:37;;;;;;;6.10;5.32;;;;;;;;;;6229914;23;20016;-72
2022/07/26 04:02:03;;;;;;;7.20;5.88;;;;;;;;;;6229689;23;20022;-71
2022/07/26 04:04:30;;;;;;;9.05;5.75;;;;;;;;;;6178553;23;20004;-72
2022/07/26 04:06:56;;;;;;;6.75;5.97;;;;;;;;;;6227997;23;20010;-71
2022/07/26 04:09:22;;;;;;;6.75;6.15;;;;;;;;;;6229421;23;20505;-72
2022/07/26 04:11:49;;;;;;;13.52;6.30;;;;;;;;;;6230103;23;20011;-72
2022/07/26 04:14:15;;;;;;;6.63;6.03;;;;;;;;;;6229962;23;20099;-72
2022/07/26 04:16:41;;;;;;;6.25;5.65;;;;;;;;;;6228819;23;20023;-72
2022/07/26 04:19:07;;;;;;;8.77;6.68;;;;;;;;;;6230117;23;20004;-71
2022/07/26 04:21:34;;;;;;;6.10;5.50;;;;;;;;;;6229614;23;20027;-72
2022/07/26 04:24:00;;;;;;;8.40;6.10;;;;;;;;;;6229832;23;20000;-72
2022/07/26 04:26:27;;;;;;;7.38;6.60;;;;;;;;;;6228510;23;20093;-71
2022/07/26 04:28:53;;;;;;;6.93;6.25;;;;;;;;;;6230279;23;20286;-71
2022/07/26 04:31:19;;;;;;;7.68;6.18;;;;;;;;;;6229966;23;20008;-71
2022/07/26 04:33:46;;;;;;;7.60;5.43;;;;;;;;;;6227128;23;20012;-71
2022/07/26 04:36:12;;;;;;;7.00;6.15;;;;;;;;;;6230196;23;20027;-71
2022/07/26 04:38:38;;;;;;;6.70;6.05;;;;;;;;;;6229339;23;20572;-72
2022/07/26 04:41:04;;;;;;;6.68;5.90;;;;;;;;;;6229085;23;20062;-71
2022/07/26 04:43:30;;;;;;;9.35;6.45;;;;;;;;;;6227837;23;20010;-71
2022/07/26 04:45:57;;;;;;;6.65;6.03;;;;;;;;;;6228393;23;20287;-71
2022/07/26 04:48:23;;;;;;;6.40;5.80;;;;;;;;;;6229484;23;20000;-71
2022/07/26 04:50:49;;;;;;;7.30;6.60;;;;;;;;;;6229537;23;20008;-71
2022/07/26 04:53:15;;;;;;;7.13;6.53;;;;;;;;;;6226084;22;20414;-71
2022/07/26 04:55:42;;;;;;;6.55;5.95;;;;;;;;;;6229943;23;20860;-71
2022/07/26 04:58:09;;;;;;;7.43;6.72;;;;;;;;;;6229038;23;20862;-73
2022/07/26 05:00:35;;;;;;;8.50;6.75;;;;;;;;;;6231872;23;20131;-71
2022/07/26 05:03:02;;;;;;;7.72;6.88;;;;;;;;;;6232208;23;20432;-72
2022/07/26 05:05:29;;;;;;;9.18;6.68;;;;;;;;;;6230237;23;20687;-71
2022/07/26 05:07:56;;;;;;;8.38;6.95;;;;;;;;;;6232237;23;20555;-72
2022/07/26 05:10:27;;;;;;;9.50;7.50;;;;;;;;;;6232197;23;20000;-72
2022/07/26 05:12:53;;;;;;;8.20;7.10;;;;;;;;;;6232138;23;20027;-71
2022/07/26 05:15:20;;;;;;;7.53;6.45;;;;;;;;;;6232079;23;19996;-71
2022/07/26 05:17:46;;;;;;;7.97;6.45;;;;;;;;;;6231956;23;20089;-72
2022/07/26 05:20:14;;;;;;;9.63;7.18;;;;;;;;;;6231525;23;20437;-71
2022/07/26 05:22:40;;;;;;;9.43;8.43;;;;;;;;;;6230070;23;20010;-71
2022/07/26 05:25:06;;;;;;;12.18;8.60;;;;;;;;;;6231745;23;20058;-71
2022/07/26 05:27:33;;;;;;;8.77;7.00;;;;;;;;;;6231681;23;19996;-71
2022/07/26 05:29:59;;;;;;;9.20;6.53;;;;;;;;;;6230974;23;20004;-71
2022/07/26 05:32:26;;;;;;;8.98;6.88;;;;;;;;;;6229219;23;20566;-71
2022/07/26 05:34:53;;;;;;;6.65;6.05;;;;;;;;;;6231592;23;20429;-71
2022/07/26 05:37:19;;;;;;;6.95;6.22;;;;;;;;;;6231398;23;20603;-71
2022/07/26 05:39:45;;;;;;;6.72;5.88;;;;;;;;;;6231135;23;20466;-71
2022/07/26 05:42:12;;;;;;;6.18;5.57;;;;;;;;;;6231668;23;20008;-72
2022/07/26 05:44:38;;;;;;;7.07;5.72;;;;;;;;;;6205101;23;20444;-71
2022/07/26 05:47:04;;;;;;;6.13;5.63;;;;;;;;;;6230179;23;20011;-71
2022/07/26 05:49:30;;;;;;;5.88;5.38;;;;;;;;;;6231308;23;20024;-71
2022/07/26 05:51:56;;;;;;;6.82;5.88;;;;;;;;;;6231068;22;20000;-71
2022/07/26 05:54:23;;;;;;;6.30;5.70;;;;;;;;;;6230959;23;20008;-71
2022/07/26 05:56:49;;;;;;;5.72;5.20;;;;;;;;;;6232524;23;20067;-71
2022/07/26 05:59:15;;;;;;;6.60;6.00;;;;;;;;;;6231178;23;20071;-72
2022/07/26 06:01:41;;;;;;;9.07;6.43;;;;;;;;;;6229314;23;20012;-71
2022/07/26 06:04:09;;;;;;;5.70;5.25;;;;;;;;;;6231490;23;20078;-71
2022/07/26 06:06:35;;;;;;;6.93;6.22;;;;;;;;;;6231151;23;20007;-72
2022/07/26 06:09:01;;;;;;;6.10;5.60;;;;;;;;;;6231189;23;20546;-72
2022/07/26 06:11:27;;;;;;;6.30;5.53;;;;;;;;;;6229315;23;20604;-71
2022/07/26 06:13:54;;;;;;;5.72;5.22;;;;;;;;;;6230930;23;20095;-71
2022/07/26 06:16:20;;;;;;;7.57;5.60;;;;;;;;;;6231522;23;20005;-71
2022/07/26 06:18:46;;;;;;;8.65;5.60;;;;;;;;;;6231027;23;20004;-71
2022/07/26 06:21:12;;;;;;;9.65;6.13;;;;;;;;;;6230939;23;20016;-71
2022/07/26 06:23:38;;;;;;;6.13;5.53;;;;;;;;;;6231273;23;20083;-72
2022/07/26 06:26:05;;;;;;;7.00;6.10;;;;;;;;;;6228887;23;20000;-71
2022/07/26 06:28:31;;;;;;;7.75;6.95;;;;;;;;;;6231207;23;19997;-72
2022/07/26 06:30:57;;;;;;;8.25;7.65;;;;;;;;;;6230584;23;20014;-71
2022/07/26 06:33:24;;;;;;;7.03;6.00;;;;;;;;;;6231430;23;20000;-71
2022/07/26 06:35:50;;;;;;;11.77;9.82;;;;;;;;;;6230818;23;20015;-70
2022/07/26 06:38:16;;;;;;;11.73;10.63;;;;;;;;;;6230780;23;20031;-74
2022/07/26 06:40:42;;;;;;;8.32;6.55;;;;;;;;;;6228451;23;20046;-73
2022/07/26 06:43:08;;;;;;;6.65;6.05;;;;;;;;;;6230305;23;20004;-76
2022/07/26 06:45:34;;;;;;;5.55;5.15;;;;;;;;;;6230768;23;20083;-74
2022/07/26 06:48:01;;;;;;;7.28;5.63;;;;;;;;;;6231106;23;20003;-75
2022/07/26 06:50:27;;;;;;;6.90;5.57;;;;;;;;;;6231459;23;20041;-75
2022/07/26 06:52:53;;;;;;;7.70;5.78;;;;;;;;;;6231043;22;20008;-75
2022/07/26 06:55:19;;;;;;;6.05;5.45;;;;;;;;;;6228677;23;20000;-73
2022/07/26 06:57:45;;;;;;;7.10;5.78;;;;;;;;;;6229085;23;20008;-73
2022/07/26 07:00:12;;;;;;;12.00;6.10;;;;;;;;;;6227922;23;20012;-72
2022/07/26 07:02:38;;;;;;;6.13;5.63;;;;;;;;;;6230872;23;20178;-72
2022/07/26 07:05:04;;;;;;;6.50;5.90;;;;;;;;;;6230421;23;20710;-74
2022/07/26 07:07:30;;;;;;;7.70;5.80;;;;;;;;;;6229594;23;20016;-72
2022/07/26 07:09:57;;;;;;;6.18;5.53;;;;;;;;;;6232452;23;20326;-72
2022/07/26 07:12:23;;;;;;;10.93;5.60;;;;;;;;;;6232937;23;20006;-73
2022/07/26 07:14:49;;;;;;;8.55;5.90;;;;;;;;;;6232685;23;20037;-72
2022/07/26 07:17:19;;;;;;;6.68;5.43;;;;;;;;;;6233030;23;20408;-72
2022/07/26 07:19:45;;;;;;;6.03;5.53;;;;;;;;;;6232134;23;20035;-72
2022/07/26 07:22:11;;;;;;;6.80;5.10;;;;;;;;;;6230604;23;20004;-72
2022/07/26 07:24:37;;;;;;;6.13;5.63;;;;;;;;;;6232563;23;19996;-72
2022/07/26 07:27:04;;;;;;;6.82;6.07;;;;;;;;;;6232744;23;20709;-72
2022/07/26 07:29:30;;;;;;;6.82;6.10;;;;;;;;;;6233192;23;20058;-72
2022/07/26 07:31:56;;;;;;;6.20;5.60;;;;;;;;;;6205945;23;20058;-75
2022/07/26 07:34:23;;;;;;;7.22;5.97;;;;;;;;;;6230408;23;20179;-75
2022/07/26 07:36:49;;;;;;;6.75;6.00;;;;;;;;;;6232493;23;20079;-72
2022/07/26 07:39:16;;;;;;;6.82;6.00;;;;;;;;;;6231955;23;20004;-74
2022/07/26 07:41:42;;;;;;;6.45;5.85;;;;;;;;;;6233159;23;20020;-74
2022/07/26 07:44:08;;;;;;;6.53;5.90;;;;;;;;;;6232694;23;20004;-74
2022/07/26 07:46:34;;;;;;;6.28;5.68;;;;;;;;;;6230838;23;20039;-74
2022/07/26 07:49:00;;;;;;;6.85;6.20;;;;;;;;;;6232154;23;20000;-74
2022/07/26 07:51:27;;;;;;;6.82;6.00;;;;;;;;;;6232635;22;20574;-72
2022/07/26 07:53:54;;;;;;;6.60;6.00;;;;;;;;;;6232869;23;20000;-74
2022/07/26 07:56:20;;;;;;;7.07;6.30;;;;;;;;;;6233287;23;20482;-74
2022/07/26 07:58:46;;;;;;;8.27;6.55;;;;;;;;;;6232593;23;20111;-72
2022/07/26 08:01:12;;;;;;;9.15;6.00;;;;;;;;;;6229736;23;20024;-76
2022/07/26 08:03:38;;;;;;;6.35;5.85;;;;;;;;;;6232217;23;20008;-73
2022/07/26 08:06:06;;;;;;;6.63;5.93;;;;;;;;;;6232115;23;20251;-74
2022/07/26 08:08:32;;;;;;;6.72;5.97;;;;;;;;;;6232498;23;20000;-75
2022/07/26 08:10:58;;;;;;;7.38;5.93;;;;;;;;;;6231606;23;20011;-73
2022/07/26 08:13:24;;;;;;;5.53;5.03;;;;;;;;;;6232020;23;20016;-74
2022/07/26 08:15:52;;;;;;;8.27;6.47;;;;;;;;;;6230605;23;20015;-74
2022/07/26 08:18:18;;;;;;;6.85;5.38;;;;;;;;;;6232075;23;20083;-73
2022/07/26 08:20:44;;;;;;;7.03;6.05;;;;;;;;;;6231695;23;20038;-71
2022/07/26 08:23:10;;;;;;;6.38;5.78;;;;;;;;;;6204437;23;20004;-73
2022/07/26 08:25:36;;;;;;;5.93;5.43;;;;;;;;;;6231745;23;20012;-72
2022/07/26 08:28:03;;;;;;;8.23;5.70;;;;;;;;;;6232506;23;20000;-73
2022/07/26 08:30:29;;;;;;;10.38;6.47;;;;;;;;;;6229838;23;20360;-74
2022/07/26 08:32:55;;;;;;;6.03;5.50;;;;;;;;;;6204788;23;20363;-73
2022/07/26 08:35:21;;;;;;;5.70;5.20;;;;;;;;;;6232204;23;20023;-72
2022/07/26 08:37:47;;;;;;;8.55;6.43;;;;;;;;;;6231529;23;20119;-73
2022/07/26 08:40:14;;;;;;;9.90;6.38;;;;;;;;;;6231791;23;20019;-73
2022/07/26 08:42:40;;;;;;;7.53;6.07;;;;;;;;;;6229850;23;20000;-72
2022/07/26 08:45:06;;;;;;;6.88;6.18;;;;;;;;;;6232092;23;20007;-72
2022/07/26 08:47:32;;;;;;;6.57;5.82;;;;;;;;;;6231817;23;20012;-71
2022/07/26 08:49:59;;;;;;;6.50;5.90;;;;;;;;;;6232142;23;20035;-72
2022/07/26 08:52:25;;;;;;;8.98;6.30;;;;;;;;;;6232225;22;20008;-73
2022/07/26 08:54:52;;;;;;;6.57;5.97;;;;;;;;;;6229892;23;20004;-74
2022/07/26 08:57:18;;;;;;;8.25;6.20;;;;;;;;;;6232031;23;20007;-74
2022/07/26 08:59:46;;;;;;;6.68;6.07;;;;;;;;;;6230974;23;20410;-73
2022/07/26 09:02:13;;;;;;;6.80;6.18;;;;;;;;;;6231344;23;20019;-74
2022/07/26 09:04:45;;;;;;;6.60;6.07;;;;;;;;;;6231832;23;20479;-75
2022/07/26 09:07:11;;;;;;;8.05;6.00;;;;;;;;;;6205308;23;20032;-75
2022/07/26 09:09:38;;;;;;;7.57;6.82;;;;;;;;;;6229805;23;19996;-74
2022/07/26 09:12:19;;;;;;;6.20;5.65;;;;;;;;;;6231329;23;20267;-75
2022/07/26 09:14:46;;;;;;;8.90;6.40;;;;;;;;;;6231470;23;20334;-74
2022/07/26 09:17:12;;;;;;;6.28;5.60;;;;;;;;;;6232022;23;20004;-74
2022/07/26 09:19:38;;;;;;;7.03;6.25;;;;;;;;;;6230533;23;20034;-74
2022/07/26 09:22:09;;;;;;;7.40;6.10;;;;;;;;;;6204207;23;20041;-74
2022/07/26 09:24:43;;;;;;;10.43;6.00;;;;;;;;;;6231680;23;20365;-74
2022/07/26 09:27:10;;;;;;;6.55;5.95;;;;;;;;;;6230007;23;20008;-73
2022/07/26 09:29:42;;;;;;;6.65;5.93;;;;;;;;;;6231578;23;20004;-74
2022/07/26 09:32:10;;;;;;;6.68;5.93;;;;;;;;;;6231300;23;20391;-74
2022/07/26 09:34:36;;;;;;;6.22;5.63;;;;;;;;;;6231654;23;20004;-73
2022/07/26 09:37:03;;;;;;;6.50;5.90;;;;;;;;;;6231465;23;20022;-75
2022/07/26 09:39:29;;;;;;;6.65;6.05;;;;;;;;;;6228909;23;20060;-75
2022/07/26 09:41:55;;;;;;;6.55;5.95;;;;;;;;;;6231210;23;20012;-74
2022/07/26 09:44:23;;;;;;;7.13;6.13;;;;;;;;;;6231101;23;20022;-72
2022/07/26 09:46:56;;;;;;;9.88;5.65;;;;;;;;;;6231724;23;20015;-72
2022/07/26 09:49:24;;;;;;;9.25;6.28;;;;;;;;;;6229601;23;19996;-72
2022/07/26 09:51:51;;;;;;;7.00;5.80;;;;;;;;;;6231504;22;20001;-72
2022/07/26 09:54:18;;;;;;;7.97;6.60;;;;;;;;;;6230892;23;20452;-72
2022/07/26 09:56:47;;;;;;;8.27;5.95;;;;;;;;;;6231534;23;20035;-72
2022/07/26 09:59:14;;;;;;;6.95;6.22;;;;;;;;;;6231195;23;20210;-72
2022/07/26 10:01:41;;;;;;;6.70;6.10;;;;;;;;;;6229300;23;20090;-71
2022/07/26 10:04:07;;;;;;;6.80;6.20;;;;;;;;;;6230969;23;20007;-72
2022/07/26 10:06:33;;;;;;;7.15;6.05;;;;;;;;;;6231848;23;20113;-72
2022/07/26 10:09:00;;;;;;;7.32;6.70;;;;;;;;;;6228504;23;20046;-72
2022/07/26 10:11:28;;;;;;;9.50;6.70;;;;;;;;;;6231080;23;20444;-72
2022/07/26 10:13:56;;;;;;;10.55;6.97;;;;;;;;;;6231244;23;20476;-72
2022/07/26 10:16:30;;;;;;;6.80;6.20;;;;;;;;;;6231245;23;20341;-72
2022/07/26 10:18:57;;;;;;;7.80;6.97;;;;;;;;;;6228877;23;20012;-73
2022/07/26 10:21:28;;;;;;;8.23;6.75;;;;;;;;;;6225834;23;20020;-74
2022/07/26 10:23:57;;;;;;;;;;;;;;;;;;6231048;23;20012;-75
2022/07/26 10:26:35;;;;;;;6.72;6.03;;;;;;;;;;6203699;23;19909;-75
2022/07/26 10:29:17;;;;;;;8.23;6.72;;;;;;;;;;6231405;23;20008;-73
2022/07/26 10:31:43;;;;;;;;;;;;;;;;;;6229973;23;19996;-75
2022/07/26 10:34:09;;;;;;;7.35;6.50;;;;;;;;;;6228942;23;20549;-75
2022/07/26 10:36:37;;;;;;;9.77;6.75;;;;;;;;;;6230942;23;20099;-75
2022/07/26 10:39:07;;;;;;;11.38;7.57;;;;;;;;;;6230710;23;20007;-75
2022/07/26 10:41:42;;;;;;;7.25;6.53;;;;;;;;;;6231104;23;20389;-76
2022/07/26 10:44:14;;;;;;;6.90;6.22;;;;;;;;;;6232684;23;20007;-74
2022/07/26 10:47:00;;;;;;;6.53;5.93;;;;;;;;;;6232932;23;20079;-76
2022/07/26 10:49:33;;;;;;;6.97;6.30;;;;;;;;;;6232626;23;20008;-75
2022/07/26 10:52:15;;;;;;;7.55;6.80;;;;;;;;;;6232952;22;20481;-76
2022/07/26 10:55:07;;;;;;;7.93;7.07;;;;;;;;;;6230931;23;20093;-76
2022/07/26 10:57:35;;;;;;;6.82;6.20;;;;;;;;;;6227684;23;20004;-76
2022/07/26 11:00:06;;;;;;;7.07;6.47;;;;;;;;;;6233064;23;20012;-76
2022/07/26 11:02:34;;;;;;;7.45;6.75;;;;;;;;;;6206153;23;20380;-76
2022/07/26 11:05:11;;;;;;;6.68;6.07;;;;;;;;;;6231558;23;20075;-76
2022/07/26 11:07:48;;;;;;;7.70;6.97;;;;;;;;;;6233110;23;20359;-73
2022/07/26 11:10:15;;;;;;;8.02;7.25;;;;;;;;;;6232396;23;20004;-77
2022/07/26 11:12:41;;;;;;;8.32;7.22;;;;;;;;;;6233231;23;20016;-75
2022/07/26 11:15:16;;;;;;;7.55;6.90;;;;;;;;;;6233255;23;20796;-75
2022/07/26 11:17:42;;;;;;;6.97;6.38;;;;;;;;;;6230772;23;20000;-74
2022/07/26 11:20:08;;;;;;;7.60;6.78;;;;;;;;;;6232464;23;20008;-77
2022/07/26 11:22:35;;;;;;;7.85;7.10;;;;;;;;;;6233025;23;20152;-73
2022/07/26 11:25:02;;;;;;;7.82;7.10;;;;;;;;;;6233351;23;20063;-76
2022/07/26 11:27:28;;;;;;;8.98;6.20;;;;;;;;;;6230648;23;20079;-76
2022/07/26 11:29:54;;;;;;;7.50;6.68;;;;;;;;;;6232367;23;20008;-76
2022/07/26 11:32:22;;;;;;;7.97;7.28;;;;;;;;;;6232881;23;20057;-74
2022/07/26 11:34:57;;;;;;;7.07;6.47;;;;;;;;;;6232867;23;20007;-75
2022/07/26 11:37:24;;;;;;;11.73;6.55;;;;;;;;;;6230542;23;20079;-77
2022/07/26 11:39:50;;;;;;;7.88;7.15;;;;;;;;;;6233231;23;20390;-74
2022/07/26 11:42:20;;;;;;;9.05;7.25;;;;;;;;;;6233039;23;20099;-73
2022/07/26 11:44:47;;;;;;;7.93;7.22;;;;;;;;;;6233189;23;20004;-75
2022/07/26 11:47:15;;;;;;;8.00;7.30;;;;;;;;;;6233454;23;20756;-73
2022/07/26 11:49:41;;;;;;;9.23;7.82;;;;;;;;;;6229989;23;20058;-74
2022/07/26 11:52:07;;;;;;;8.20;7.07;;;;;;;;;;6232071;22;20000;-75
2022/07/26 11:54:43;;;;;;;8.25;7.55;;;;;;;;;;6231257;23;20004;-74
2022/07/26 11:57:10;;;;;;;10.60;7.95;;;;;;;;;;6232453;23;20020;-75
2022/07/26 11:59:37;;;;;;;10.07;7.13;;;;;;;;;;6231232;23;20444;-74
2022/07/26 12:02:04;;;;;;;9.98;7.63;;;;;;;;;;6205548;23;20026;-75
2022/07/26 12:04:41;;;;;;;8.88;7.80;;;;;;;;;;6230097;23;20008;-73
2022/07/26 12:07:12;;;;;;;11.63;7.97;;;;;;;;;;6232210;23;20026;-76
2022/07/26 12:09:50;;;;;;;9.30;7.90;;;;;;;;;;6231686;23;20004;-74
2022/07/26 12:12:20;;;;;;;8.35;7.60;;;;;;;;;;6231935;23;20427;-72
2022/07/26 12:14:55;;;;;;;8.50;7.77;;;;;;;;;;6229621;23;20012;-76
2022/07/26 12:17:21;;;;;;;10.82;7.63;;;;;;;;;;6205801;23;20801;-76
2022/07/26 12:19:47;;;;;;;10.80;8.15;;;;;;;;;;6231131;23;20034;-76
2022/07/26 12:22:16;;;;;;;8.30;7.50;;;;;;;;;;6204683;23;20384;-76
2022/07/26 12:24:44;;;;;;;8.85;7.93;;;;;;;;;;6231024;23;20060;-75
2022/07/26 12:27:10;;;;;;;8.80;7.90;;;;;;;;;;6232071;23;20008;-75
2022/07/26 12:29:36;;;;;;;8.50;7.60;;;;;;;;;;6231519;23;20616;-75
2022/07/26 12:32:04;;;;;;;8.00;7.20;;;;;;;;;;6232452;23;20039;-76
2022/07/26 12:34:30;;;;;;;8.32;7.63;;;;;;;;;;6230029;23;20004;-75
2022/07/26 12:37:09;;;;;;;7.97;7.22;;;;;;;;;;6231236;23;20004;-77
2022/07/26 12:39:36;;;;;;;8.38;7.57;;;;;;;;;;6231573;23;20000;-73
2022/07/26 12:42:23;;;;;;;8.70;7.80;;;;;;;;;;6231953;23;20012;-76
2022/07/26 12:44:50;;;;;;;8.82;8.02;;;;;;;;;;6231754;23;20023;-76
2022/07/26 12:47:16;;;;;;;7.53;6.93;;;;;;;;;;6231388;23;20294;-76
2022/07/26 12:49:45;;;;;;;9.38;7.63;;;;;;;;;;6228689;23;20000;-76
2022/07/26 12:52:11;;;;;;;8.77;7.45;;;;;;;;;;6231735;22;20016;-75
2022/07/26 12:54:38;;;;;;;9.00;7.53;;;;;;;;;;6204874;23;20008;-74
2022/07/26 12:57:04;;;;;;;18.13;7.97;;;;;;;;;;6230721;23;20011;-74
2022/07/26 12:59:30;;;;;;;9.05;7.60;;;;;;;;;;6229822;23;20011;-74
2022/07/26 13:01:56;;;;;;;7.57;6.88;;;;;;;;;;6231392;23;20087;-72
2022/07/26 13:04:22;;;;;;;8.23;7.30;;;;;;;;;;6231347;23;20067;-74
2022/07/26 13:06:49;;;;;;;9.88;7.30;;;;;;;;;;6230471;23;20004;-74
2022/07/26 13:09:15;;;;;;;7.43;6.75;;;;;;;;;;6229380;23;20053;-75
2022/07/26 13:11:41;;;;;;;8.32;7.53;;;;;;;;;;6231477;23;20008;-74
2022/07/26 13:14:07;;;;;;;8.40;7.63;;;;;;;;;;6231954;23;20059;-75
2022/07/26 13:16:33;;;;;;;8.68;7.40;;;;;;;;;;6204145;23;20008;-75
2022/07/26 13:19:00;;;;;;;7.60;6.78;;;;;;;;;;6231142;23;20010;-76
2022/07/26 13:21:26;;;;;;;8.60;7.53;;;;;;;;;;6230677;23;20128;-74
2022/07/26 13:23:52;;;;;;;8.57;7.50;;;;;;;;;;6229364;23;20034;-75
2022/07/26 13:26:18;;;;;;;8.40;7.60;;;;;;;;;;6231336;23;20008;-75
2022/07/26 13:28:44;;;;;;;8.77;6.60;;;;;;;;;;6231179;23;20058;-74
2022/07/26 13:31:11;;;;;;;7.93;7.13;;;;;;;;;;6229191;23;20004;-75
2022/07/26 13:33:38;;;;;;;8.68;7.35;;;;;;;;;;6231167;23;20000;-74
2022/07/26 13:36:04;;;;;;;8.60;6.93;;;;;;;;;;6230376;23;20014;-73
2022/07/26 13:38:33;;;;;;;8.77;7.40;;;;;;;;;;6231844;23;20076;-74
2022/07/26 13:41:01;;;;;;;10.05;7.05;;;;;;;;;;6229499;23;20036;-77
2022/07/26 13:43:27;;;;;;;9.18;7.40;;;;;;;;;;6227810;23;20000;-78
2022/07/26 13:45:54;;;;;;;10.23;6.88;;;;;;;;;;6225042;23;20051;-80
2022/07/26 13:48:20;;;;;;;8.02;7.30;;;;;;;;;;6228461;23;20516;-78
2022/07/26 13:50:46;;;;;;;8.45;7.20;;;;;;;;;;6228004;22;20004;-78
2022/07/26 13:53:12;;;;;;;8.43;6.68;;;;;;;;;;6227963;23;20007;-79
2022/07/26 13:55:38;;;;;;;7.50;6.90;;;;;;;;;;6227011;23;20421;-79
2022/07/26 13:58:05;;;;;;;8.95;7.50;;;;;;;;;;6228231;23;20440;-82
2022/07/26 14:00:31;;;;;;;7.97;6.80;;;;;;;;;;6228494;23;20014;-78
2022/07/26 14:02:58;;;;;;;8.73;7.82;;;;;;;;;;6227910;23;20004;-74
2022/07/26 14:05:24;;;;;;;7.47;6.72;;;;;;;;;;6227494;23;20031;-79
2022/07/26 14:07:50;;;;;;;8.98;7.13;;;;;;;;;;6228780;23;20004;-79
2022/07/26 14:10:17;;;;;;;7.93;7.18;;;;;;;;;;6225799;23;20030;-78
2022/07/26 14:12:43;;;;;;;8.07;7.32;;;;;;;;;;6228663;23;20016;-79
2022/07/26 14:15:09;;;;;;;7.70;6.97;;;;;;;;;;6228204;23;20136;-72
2022/07/26 14:17:36;;;;;;;7.78;6.88;;;;;;;;;;6228463;23;20031;-74
2022/07/26 14:20:03;;;;;;;7.97;6.70;;;;;;;;;;6225821;23;20639;-80
2022/07/26 14:22:30;;;;;;;7.35;6.65;;;;;;;;;;6228006;23;20083;-81
2022/07/26 14:24:56;;;;;;;9.18;7.22;;;;;;;;;;6227649;23;20187;-81
2022/07/26 14:27:22;;;;;;;7.78;7.07;;;;;;;;;;6228712;23;20008;-81
2022/07/26 14:29:49;;;;;;;8.38;6.90;;;;;;;;;;6227242;23;20008;-78
2022/07/26 14:32:15;;;;;;;7.60;6.85;;;;;;;;;;6224958;23;20079;-82
2022/07/26 14:34:41;;;;;;;9.27;7.38;;;;;;;;;;6201486;23;20740;-80
2022/07/26 14:37:08;;;;;;;9.27;7.57;;;;;;;;;;6228243;23;20087;-80
2022/07/26 14:39:34;;;;;;;9.18;7.22;;;;;;;;;;6228742;23;20001;-81
2022/07/26 14:42:01;;;;;;;6.88;6.22;;;;;;;;;;6228123;23;20095;-81
2022/07/26 14:44:27;;;;;;;8.15;6.85;;;;;;;;;;6225796;23;20012;-81
2022/07/26 14:46:54;;;;;;;7.82;6.78;;;;;;;;;;6201035;23;20112;-73